createdAt,value
2023-10-30T00:01:37.238Z,10.95
2023-10-30T00:04:25.330Z,9.48
2023-10-30T00:07:14.668Z,10.23
2023-10-30T00:10:02.533Z,14.75
2023-10-30T00:12:50.527Z,10.90
2023-10-30T00:15:38.428Z,18.08
2023-10-30T00:18:26.561Z,11.07
2023-10-30T00:21:14.517Z,10.13
2023-10-30T00:24:04.120Z,9.82
2023-10-30T00:26:52.052Z,9.25
2023-10-30T00:29:42.012Z,10.82
2023-10-30T00:32:29.927Z,13.27
2023-10-30T00:35:17.827Z,20.25
2023-10-30T00:38:06.117Z,7.90
2023-10-30T00:40:55.479Z,11.35
2023-10-30T00:43:43.475Z,11.93
2023-10-30T00:46:31.554Z,12.45
2023-10-30T00:49:19.754Z,14.45
2023-10-30T00:52:08.361Z,13.60
2023-10-30T00:54:56.134Z,11.23
2023-10-30T00:57:45.512Z,11.15
2023-10-30T01:00:33.286Z,14.13
2023-10-30T01:03:24.900Z,12.48
2023-10-30T01:06:12.949Z,11.82
2023-10-30T01:09:01.045Z,17.67
2023-10-30T01:11:48.990Z,13.10
2023-10-30T01:14:38.269Z,12.48
2023-10-30T01:17:26.416Z,11.45
2023-10-30T01:20:15.047Z,10.40
2023-10-30T01:23:02.925Z,11.77
2023-10-30T01:25:51.149Z,12.52
2023-10-30T01:28:38.915Z,13.15
2023-10-30T01:31:29.122Z,19.25
2023-10-30T01:34:17.017Z,11.02
2023-10-30T01:37:05.553Z,11.48
2023-10-30T01:39:53.284Z,11.10
2023-10-30T01:42:41.297Z,10.75
2023-10-30T01:45:29.170Z,15.27
2023-10-30T01:48:18.558Z,17.25
2023-10-30T01:51:08.867Z,14.38
2023-10-30T01:53:57.089Z,10.90
2023-10-30T01:56:45.253Z,14.68
2023-10-30T01:59:34.039Z,16.25
2023-10-30T02:02:23.250Z,16.70
2023-10-30T02:05:14.738Z,19.88
2023-10-30T02:08:03.335Z,29.45
2023-10-30T02:10:51.350Z,17.75
2023-10-30T02:13:39.106Z,15.13
2023-10-30T02:16:27.201Z,10.63
2023-10-30T02:19:23.903Z,15.43
2023-10-30T02:22:13.150Z,14.23
2023-10-30T02:25:01.355Z,10.65
2023-10-30T02:27:50.745Z,14.75
2023-10-30T02:30:38.774Z,17.70
2023-10-30T02:33:27.269Z,15.30
2023-10-30T02:36:15.117Z,15.20
2023-10-30T02:39:04.196Z,15.88
2023-10-30T02:41:51.916Z,16.40
2023-10-30T02:44:41.447Z,13.07
2023-10-30T02:47:30.031Z,10.93
2023-10-30T02:50:17.887Z,16.00
2023-10-30T02:53:07.366Z,13.30
2023-10-30T02:55:55.513Z,9.65
2023-10-30T02:58:43.646Z,10.70
2023-10-30T03:01:32.877Z,14.20
2023-10-30T03:04:21.163Z,12.10
2023-10-30T03:07:08.960Z,11.27
2023-10-30T03:09:56.919Z,13.20
2023-10-30T03:12:44.950Z,12.40
2023-10-30T03:15:32.964Z,11.93
2023-10-30T03:18:22.308Z,13.02
2023-10-30T03:21:10.250Z,12.82
2023-10-30T03:23:58.300Z,10.73
2023-10-30T03:26:46.048Z,12.63
2023-10-30T03:29:37.881Z,13.68
2023-10-30T03:32:25.720Z,11.07
2023-10-30T03:35:15.041Z,14.35
2023-10-30T03:38:02.923Z,14.13
2023-10-30T03:40:50.781Z,12.32
2023-10-30T03:43:38.804Z,13.55
2023-10-30T03:46:26.718Z,13.25
2023-10-30T03:49:14.862Z,10.02
2023-10-30T03:52:04.119Z,10.57
2023-10-30T03:54:51.908Z,12.45
2023-10-30T03:57:41.747Z,11.38
2023-10-30T04:00:29.754Z,16.40
2023-10-30T04:03:18.025Z,11.73
2023-10-30T04:06:06.583Z,9.30
2023-10-30T04:08:55.943Z,14.20
2023-10-30T04:11:47.634Z,16.05
2023-10-30T04:14:35.607Z,10.85
2023-10-30T04:17:24.344Z,13.10
2023-10-30T04:20:13.432Z,11.32
2023-10-30T04:23:01.526Z,11.45
2023-10-30T04:25:50.865Z,12.00
2023-10-30T04:28:38.744Z,11.77
2023-10-30T04:31:26.701Z,12.57
2023-10-30T04:34:14.735Z,12.52
2023-10-30T04:37:02.896Z,16.08
2023-10-30T04:39:51.168Z,12.73
2023-10-30T04:42:41.367Z,12.90
2023-10-30T04:45:29.522Z,15.02
2023-10-30T04:48:17.577Z,12.57
2023-10-30T04:51:06.080Z,14.65
2023-10-30T04:53:55.376Z,9.98
2023-10-30T04:56:43.712Z,14.60
2023-10-30T04:59:34.053Z,16.33
2023-10-30T05:02:22.174Z,16.52
2023-10-30T05:05:10.585Z,10.30
2023-10-30T05:07:58.372Z,16.98
2023-10-30T05:10:47.930Z,19.27
2023-10-30T05:13:36.677Z,23.83
2023-10-30T05:16:26.293Z,15.88
2023-10-30T05:19:14.185Z,17.58
2023-10-30T05:22:02.296Z,12.65
2023-10-30T05:24:50.176Z,16.05
2023-10-30T05:27:38.339Z,19.23
2023-10-30T05:30:26.543Z,17.38
2023-10-30T05:33:15.864Z,18.58
2023-10-30T05:36:04.715Z,18.10
2023-10-30T05:38:52.529Z,21.25
2023-10-30T05:41:40.383Z,20.17
2023-10-30T05:44:31.532Z,19.77
2023-10-30T05:47:19.448Z,15.05
2023-10-30T05:50:11.273Z,16.88
2023-10-30T05:52:59.049Z,23.27
2023-10-30T05:55:47.564Z,20.55
2023-10-30T05:58:35.590Z,28.08
2023-10-30T06:01:23.550Z,22.40
2023-10-30T06:04:11.611Z,15.77
2023-10-30T06:07:00.934Z,19.33
2023-10-30T06:09:49.222Z,19.55
2023-10-30T06:12:37.342Z,21.63
2023-10-30T06:15:25.630Z,20.73
2023-10-30T06:18:13.763Z,21.23
2023-10-30T06:21:03.075Z,22.50
2023-10-30T06:23:52.386Z,26.33
2023-10-30T06:26:42.271Z,28.13
2023-10-30T06:29:30.476Z,23.45
2023-10-30T06:32:18.781Z,29.60
2023-10-30T06:35:09.241Z,57.53
2023-10-30T06:37:57.387Z,26.65
2023-10-30T06:40:47.428Z,52.20
2023-10-30T06:43:36.144Z,44.40
2023-10-30T06:46:24.453Z,60.38
2023-10-30T06:49:12.488Z,34.20
2023-10-30T06:52:01.789Z,17.05
2023-10-30T06:54:49.854Z,29.77
2023-10-30T06:57:39.387Z,25.63
2023-10-30T07:00:28.175Z,25.27
2023-10-30T07:03:16.467Z,29.00
2023-10-30T07:06:04.798Z,29.17
2023-10-30T07:08:52.555Z,19.27
2023-10-30T07:11:41.254Z,15.23
2023-10-30T07:14:30.875Z,15.00
2023-10-30T07:17:19.003Z,11.70
2023-10-30T07:20:07.890Z,14.95
2023-10-30T07:22:55.971Z,21.00
2023-10-30T07:25:43.902Z,13.68
2023-10-30T07:28:31.890Z,21.55
2023-10-30T07:31:22.303Z,12.13
2023-10-30T07:34:10.273Z,16.95
2023-10-30T07:36:58.855Z,10.35
2023-10-30T07:39:46.681Z,12.88
2023-10-30T07:42:34.944Z,12.05
2023-10-30T07:45:22.889Z,13.43
2023-10-30T07:48:12.312Z,13.07
2023-10-30T07:51:03.836Z,17.55
2023-10-30T07:53:52.088Z,17.60
2023-10-30T07:56:40.334Z,13.40
2023-10-30T07:59:28.074Z,6.38
2023-10-30T08:02:16.195Z,13.48
2023-10-30T08:05:06.231Z,14.15
2023-10-30T08:07:54.250Z,8.73
2023-10-30T08:10:42.076Z,12.40
2023-10-30T08:13:30.077Z,13.23
2023-10-30T08:16:18.343Z,8.18
2023-10-30T08:19:06.610Z,7.47
2023-10-30T08:21:56.114Z,9.57
2023-10-30T08:24:44.024Z,11.25
2023-10-30T08:27:32.145Z,8.10
2023-10-30T08:30:20.411Z,10.25
2023-10-30T08:33:08.289Z,8.93
2023-10-30T08:35:56.582Z,6.05
2023-10-30T08:38:45.725Z,10.25
2023-10-30T08:41:34.974Z,5.15
2023-10-30T08:44:26.025Z,7.15
2023-10-30T08:47:18.153Z,6.57
2023-10-30T08:50:09.467Z,9.60
2023-10-30T08:52:57.533Z,11.38
2023-10-30T08:55:46.872Z,9.70
2023-10-30T08:58:34.828Z,10.60
2023-10-30T09:01:22.721Z,8.48
2023-10-30T09:04:11.531Z,13.07
2023-10-30T09:06:59.496Z,12.88
2023-10-30T09:09:47.930Z,7.07
2023-10-30T09:12:37.650Z,8.85
2023-10-30T09:15:25.693Z,12.02
2023-10-30T09:18:13.760Z,10.18
2023-10-30T09:21:01.782Z,13.35
2023-10-30T09:23:49.698Z,8.65
2023-10-30T09:26:37.579Z,7.13
2023-10-30T09:29:27.237Z,8.95
2023-10-30T09:32:15.609Z,14.43
2023-10-30T09:35:04.585Z,9.57
2023-10-30T09:37:52.578Z,8.85
2023-10-30T09:40:40.636Z,8.90
2023-10-30T09:43:30.420Z,6.95
2023-10-30T09:46:24.681Z,15.35
2023-10-30T09:49:15.271Z,11.68
2023-10-30T09:52:05.648Z,9.80
2023-10-30T09:54:55.645Z,9.63
2023-10-30T09:57:44.985Z,15.82
2023-10-30T10:00:33.586Z,10.98
2023-10-30T10:03:23.116Z,11.82
2023-10-30T10:06:11.397Z,6.75
2023-10-30T10:09:00.313Z,12.90
2023-10-30T10:11:48.594Z,9.55
2023-10-30T10:14:36.620Z,11.85
2023-10-30T10:17:24.841Z,11.23
2023-10-30T10:20:14.749Z,6.53
2023-10-30T10:23:02.630Z,11.50
2023-10-30T10:26:00.906Z,9.55
2023-10-30T10:28:49.322Z,7.82
2023-10-30T10:31:42.177Z,7.47
2023-10-30T10:34:33.143Z,18.20
2023-10-30T10:37:22.747Z,10.38
2023-10-30T10:40:19.037Z,13.63
2023-10-30T10:43:09.394Z,7.57
2023-10-30T10:45:58.407Z,13.50
2023-10-30T10:48:46.537Z,8.60
2023-10-30T10:51:38.676Z,14.15
2023-10-30T10:54:33.335Z,9.55
2023-10-30T10:57:23.225Z,9.80
2023-10-30T11:00:15.075Z,12.77
2023-10-30T11:03:06.897Z,11.82
2023-10-30T11:05:55.726Z,10.43
2023-10-30T11:08:50.468Z,11.88
2023-10-30T11:11:48.499Z,8.50
2023-10-30T11:14:45.222Z,7.25
2023-10-30T11:17:33.546Z,10.18
2023-10-30T11:20:24.414Z,12.30
2023-10-30T11:23:13.817Z,9.95
2023-10-30T11:26:01.930Z,13.35
2023-10-30T11:28:51.216Z,9.98
2023-10-30T11:32:05.491Z,19.58
2023-10-30T11:34:53.369Z,9.90
2023-10-30T11:37:42.520Z,11.88
2023-10-30T11:40:31.162Z,8.55
2023-10-30T11:43:21.631Z,9.65
2023-10-30T11:46:11.050Z,7.03
2023-10-30T11:49:01.077Z,14.52
2023-10-30T11:51:53.309Z,12.18
2023-10-30T11:54:42.920Z,9.80
2023-10-30T11:57:30.910Z,8.90
2023-10-30T12:00:19.558Z,7.70
2023-10-30T12:03:10.831Z,13.68
2023-10-30T12:05:58.926Z,11.07
2023-10-30T12:08:46.803Z,5.10
2023-10-30T12:11:34.879Z,8.63
2023-10-30T12:14:23.178Z,10.05
2023-10-30T12:17:11.421Z,5.63
2023-10-30T12:20:01.154Z,11.50
2023-10-30T12:22:49.049Z,8.95
2023-10-30T12:25:36.986Z,9.80
2023-10-30T12:28:24.765Z,10.82
2023-10-30T12:31:20.055Z,12.13
2023-10-30T12:34:09.524Z,16.48
2023-10-30T12:36:58.800Z,5.72
2023-10-30T12:40:02.606Z,8.32
2023-10-30T12:42:51.198Z,6.63
2023-10-30T12:45:40.447Z,8.30
2023-10-30T12:48:28.431Z,5.35
2023-10-30T12:51:16.392Z,7.78
2023-10-30T12:54:06.372Z,8.65
2023-10-30T12:56:54.442Z,7.95
2023-10-30T12:59:42.229Z,6.85
2023-10-30T13:02:30.612Z,5.22
2023-10-30T13:05:18.926Z,7.47
2023-10-30T13:08:07.039Z,9.95
2023-10-30T13:10:56.421Z,6.15
2023-10-30T13:13:44.342Z,7.10
2023-10-30T13:16:32.472Z,8.23
2023-10-30T13:19:20.373Z,6.78
2023-10-30T13:22:08.344Z,9.00
2023-10-30T13:24:56.338Z,10.10
2023-10-30T13:27:45.700Z,9.80
2023-10-30T13:30:33.728Z,6.40
2023-10-30T13:33:21.708Z,6.13
2023-10-30T13:36:09.887Z,6.72
2023-10-30T13:38:57.665Z,8.15
2023-10-30T13:41:47.430Z,5.75
2023-10-30T13:44:36.920Z,11.02
2023-10-30T13:47:24.717Z,4.55
2023-10-30T13:50:12.784Z,14.15
2023-10-30T13:53:00.614Z,9.32
2023-10-30T13:55:48.778Z,6.38
2023-10-30T13:58:38.479Z,8.05
2023-10-30T14:01:27.988Z,11.15
2023-10-30T14:07:06.121Z,4.97
2023-10-30T14:09:57.051Z,4.88
2023-10-30T14:12:44.911Z,7.65
2023-10-30T14:15:33.262Z,9.02
2023-10-30T14:18:22.713Z,4.40
2023-10-30T14:21:10.588Z,5.45
2023-10-30T14:23:58.490Z,10.43
2023-10-30T14:26:46.193Z,5.18
2023-10-30T14:29:34.284Z,8.15
2023-10-30T14:32:22.227Z,6.28
2023-10-30T14:35:11.690Z,6.30
2023-10-30T14:37:59.465Z,11.18
2023-10-30T14:40:47.245Z,7.68
2023-10-30T14:43:35.058Z,8.45
2023-10-30T14:46:23.808Z,9.63
2023-10-30T14:49:12.505Z,10.18
2023-10-30T14:52:03.570Z,9.02
2023-10-30T14:54:51.678Z,14.57
2023-10-30T14:57:39.806Z,6.70
2023-10-30T15:00:27.642Z,16.77
2023-10-30T15:03:15.918Z,15.38
2023-10-30T15:06:03.780Z,10.93
2023-10-30T15:08:53.224Z,17.13
2023-10-30T15:11:41.076Z,11.00
2023-10-30T15:14:29.803Z,15.57
2023-10-30T15:17:18.000Z,9.43
2023-10-30T15:20:06.856Z,19.63
2023-10-30T15:22:54.996Z,14.38
2023-10-30T15:25:44.324Z,13.07
2023-10-30T15:28:32.559Z,17.20
2023-10-30T15:31:20.537Z,16.35
2023-10-30T15:34:08.523Z,14.57
2023-10-30T15:36:56.720Z,13.45
2023-10-30T15:39:44.957Z,16.42
2023-10-30T15:42:34.587Z,12.75
2023-10-30T15:45:22.523Z,19.40
2023-10-30T15:48:12.149Z,15.32
2023-10-30T15:51:00.132Z,24.08
2023-10-30T15:59:31.546Z,17.05
2023-10-30T16:02:19.761Z,22.67
2023-10-30T16:05:08.315Z,18.38
2023-10-30T16:07:57.489Z,15.68
2023-10-30T16:10:45.678Z,11.93
2023-10-30T16:16:26.588Z,30.17
2023-10-30T16:19:16.212Z,25.92
2023-10-30T16:22:04.584Z,22.25
2023-10-30T16:24:52.644Z,35.70
2023-10-30T16:27:40.438Z,25.80
2023-10-30T16:30:28.453Z,35.80
2023-10-30T16:33:19.030Z,31.67
2023-10-30T16:36:07.884Z,21.80
2023-10-30T16:38:55.800Z,26.70
2023-10-30T16:41:44.265Z,28.67
2023-10-30T16:44:35.473Z,28.23
2023-10-30T16:47:23.689Z,27.00
2023-10-30T16:50:14.756Z,28.60
2023-10-30T16:53:04.020Z,31.75
2023-10-30T16:55:52.033Z,25.75
2023-10-30T16:58:40.176Z,31.83
2023-10-30T17:01:30.269Z,26.20
2023-10-30T17:04:18.826Z,21.55
2023-10-30T17:07:09.190Z,33.90
2023-10-30T17:09:57.086Z,27.42
2023-10-30T17:12:44.898Z,36.15
2023-10-30T17:15:32.987Z,35.70
2023-10-30T17:18:27.437Z,37.50
2023-10-30T17:21:15.356Z,40.97
2023-10-30T17:24:05.017Z,34.92
2023-10-30T17:26:52.871Z,34.22
2023-10-30T17:29:40.843Z,38.13
2023-10-30T17:32:28.838Z,34.15
2023-10-30T17:35:16.679Z,26.13
2023-10-30T17:38:04.825Z,33.47
2023-10-30T17:40:54.078Z,29.55
2023-10-30T17:43:41.848Z,29.98
2023-10-30T17:46:30.275Z,30.90
2023-10-30T17:49:18.193Z,28.58
2023-10-30T17:52:06.230Z,27.42
2023-10-30T17:54:54.216Z,32.63
2023-10-30T17:57:43.529Z,34.55
2023-10-30T18:00:32.071Z,33.78
2023-10-30T18:03:20.315Z,39.83
2023-10-30T18:06:08.941Z,44.80
2023-10-30T18:08:56.860Z,41.15
2023-10-30T18:11:44.948Z,40.97
2023-10-30T18:14:36.147Z,41.20
2023-10-30T18:17:27.830Z,39.75
2023-10-30T18:20:16.128Z,35.80
2023-10-30T18:23:04.480Z,43.00
2023-10-30T18:25:55.485Z,38.88
2023-10-30T18:28:44.741Z,56.30
2023-10-30T18:31:34.529Z,37.58
2023-10-30T18:34:22.583Z,29.05
2023-10-30T18:37:10.784Z,28.90
2023-10-30T18:39:58.855Z,35.25
2023-10-30T18:42:46.725Z,35.58
2023-10-30T18:45:34.929Z,27.45
2023-10-30T18:48:27.637Z,28.60
2023-10-30T18:51:18.260Z,33.03
2023-10-30T18:54:06.681Z,18.60
2023-10-30T18:56:56.875Z,17.92
2023-10-30T18:59:45.328Z,19.38
2023-10-30T19:02:33.645Z,22.42
2023-10-30T19:05:23.378Z,15.70
2023-10-30T19:08:12.098Z,15.32
2023-10-30T19:11:00.698Z,15.65
2023-10-30T19:13:49.415Z,16.38
2023-10-30T19:16:37.893Z,14.02
2023-10-30T19:19:26.594Z,17.30
2023-10-30T19:22:18.522Z,17.10
2023-10-30T19:25:07.640Z,17.88
2023-10-30T19:27:55.965Z,16.85
2023-10-30T19:30:44.432Z,9.45
2023-10-30T19:33:33.086Z,15.77
2023-10-30T19:36:21.704Z,12.48
2023-10-30T19:39:12.640Z,13.65
2023-10-30T19:42:01.137Z,13.23
2023-10-30T19:44:49.709Z,13.82
2023-10-30T19:47:38.389Z,13.27
2023-10-30T19:50:26.913Z,14.43
2023-10-30T19:53:15.865Z,14.00
2023-10-30T19:56:06.134Z,14.88
2023-10-30T19:58:57.600Z,14.38
2023-10-30T20:01:46.606Z,10.70
2023-10-30T20:04:36.347Z,11.07
2023-10-30T20:07:25.067Z,14.80
2023-10-30T20:10:28.348Z,16.90
2023-10-30T20:13:25.298Z,13.07
2023-10-30T20:16:13.861Z,12.35
2023-10-30T20:19:02.302Z,12.50
2023-10-30T20:21:50.656Z,14.70
2023-10-30T20:24:40.872Z,11.55
2023-10-30T20:27:29.887Z,18.23
2023-10-30T20:30:22.980Z,16.80
2023-10-30T20:33:11.140Z,14.02
2023-10-30T20:36:00.597Z,11.52
2023-10-30T20:38:48.641Z,11.90
2023-10-30T20:41:36.806Z,12.55
2023-10-30T20:44:24.840Z,10.80
2023-10-30T20:47:17.743Z,13.25
2023-10-30T20:50:07.000Z,10.35
2023-10-30T20:52:55.385Z,13.48
2023-10-30T20:55:43.857Z,10.95
2023-10-30T20:58:32.523Z,13.48
2023-10-30T21:01:21.352Z,13.13
2023-10-30T21:04:10.939Z,13.77
2023-10-30T21:06:59.006Z,12.02
2023-10-30T21:09:46.783Z,14.25
2023-10-30T21:12:35.766Z,13.98
2023-10-30T21:15:24.974Z,9.38
2023-10-30T21:18:13.484Z,12.45
2023-10-30T21:21:03.811Z,8.52
2023-10-30T21:23:51.758Z,10.70
2023-10-30T21:26:39.641Z,8.60
2023-10-30T21:29:27.832Z,15.90
2023-10-30T21:32:15.711Z,15.63
2023-10-30T21:35:04.132Z,14.07
2023-10-30T21:37:53.458Z,17.10
2023-10-30T21:40:41.357Z,14.93
2023-10-30T21:43:29.360Z,11.20
2023-10-30T21:46:18.610Z,7.47
2023-10-30T21:49:06.767Z,8.05
2023-10-30T21:51:54.542Z,10.45
2023-10-30T21:54:45.308Z,23.48
2023-10-30T21:57:33.229Z,9.35
2023-10-30T22:00:21.514Z,13.65
2023-10-30T22:03:09.627Z,14.48
2023-10-30T22:05:57.628Z,11.90
2023-10-30T22:08:45.730Z,23.88
2023-10-30T22:11:35.713Z,21.88
2023-10-30T22:14:25.007Z,22.95
2023-10-30T22:17:13.306Z,26.80
2023-10-30T22:20:01.372Z,24.20
2023-10-30T22:22:49.311Z,28.00
2023-10-30T22:25:37.323Z,24.33
2023-10-30T22:28:26.803Z,22.63
2023-10-30T22:31:14.753Z,24.88
2023-10-30T22:34:02.599Z,21.92
2023-10-30T22:36:50.497Z,26.00
2023-10-30T22:39:38.420Z,20.20
2023-10-30T22:42:26.196Z,24.65
2023-10-30T22:45:15.520Z,25.35
2023-10-30T22:48:03.624Z,25.17
2023-10-30T22:50:51.704Z,23.27
2023-10-30T22:53:39.731Z,25.40
2023-10-30T22:56:27.592Z,21.65
2023-10-30T22:59:15.415Z,19.05
2023-10-30T23:02:04.720Z,18.75
2023-10-30T23:04:52.687Z,16.52
2023-10-30T23:07:40.933Z,17.75
2023-10-30T23:10:28.965Z,19.20
2023-10-30T23:13:16.927Z,16.23
2023-10-30T23:16:05.318Z,19.17
2023-10-30T23:18:54.728Z,16.52
2023-10-30T23:21:42.629Z,14.55
2023-10-30T23:24:30.517Z,9.45
2023-10-30T23:27:18.560Z,13.73
2023-10-30T23:30:07.480Z,15.77
2023-10-30T23:32:55.609Z,11.30
2023-10-30T23:35:44.910Z,11.98
2023-10-30T23:38:33.695Z,22.23
2023-10-30T23:41:21.487Z,17.17
2023-10-30T23:44:09.424Z,15.30
2023-10-30T23:46:57.601Z,11.30
2023-10-30T23:49:46.089Z,17.85
2023-10-30T23:52:35.524Z,13.90
2023-10-30T23:55:23.397Z,13.15
2023-10-30T23:58:11.259Z,14.93
